sensor_id;sensor_type;location;lat;lon;timestamp;pressure;altitude;pressure_sealevel;temperature;humidity
83308;BME280;73223;48.584;13.460;2023-11-19T00:00:47;97080.47;;;4.24;100.00
83308;BME280;73223;48.584;13.460;2023-11-19T00:03:12;97081.38;;;4.03;100.00
83308;BME280;73223;48.584;13.460;2023-11-19T00:05:38;97090.69;;;4.36;100.00
83308;BME280;73223;48.584;13.460;2023-11-19T00:08:04;97075.38;;;4.12;100.00
83308;BME280;73223;48.584;13.460;2023-11-19T00:10:30;97079.63;;;4.13;100.00
83308;BME280;73223;48.584;13.460;2023-11-19T00:12:56;97069.41;;;4.01;100.00
83308;BME280;73223;48.584;13.460;2023-11-19T00:15:22;97066.00;;;3.87;100.00
83308;BME280;73223;48.584;13.460;2023-11-19T00:17:49;97068.50;;;4.20;100.00
83308;BME280;73223;48.584;13.460;2023-11-19T00:20:18;97060.00;;;4.07;100.00
83308;BME280;73223;48.584;13.460;2023-11-19T00:22:44;97056.53;;;4.30;100.00
83308;BME280;73223;48.584;13.460;2023-11-19T00:25:11;97056.50;;;4.36;100.00
83308;BME280;73223;48.584;13.460;2023-11-19T00:27:36;97052.16;;;4.48;100.00
83308;BME280;73223;48.584;13.460;2023-11-19T00:30:07;97037.59;;;4.53;100.00
83308;BME280;73223;48.584;13.460;2023-11-19T00:32:36;97042.84;;;4.20;100.00
83308;BME280;73223;48.584;13.460;2023-11-19T00:35:03;97036.03;;;4.17;100.00
83308;BME280;73223;48.584;13.460;2023-11-19T00:37:29;97047.03;;;4.50;100.00
83308;BME280;73223;48.584;13.460;2023-11-19T00:39:54;97035.03;;;4.60;100.00
83308;BME280;73223;48.584;13.460;2023-11-19T00:42:21;97030.75;;;4.51;100.00
83308;BME280;73223;48.584;13.460;2023-11-19T00:44:47;97036.06;;;4.02;100.00
83308;BME280;73223;48.584;13.460;2023-11-19T00:47:12;97023.19;;;4.28;100.00
83308;BME280;73223;48.584;13.460;2023-11-19T00:49:37;97025.69;;;4.43;100.00
83308;BME280;73223;48.584;13.460;2023-11-19T00:52:03;97024.84;;;4.32;100.00
83308;BME280;73223;48.584;13.460;2023-11-19T00:54:28;97010.34;;;4.28;100.00
83308;BME280;73223;48.584;13.460;2023-11-19T00:56:53;97009.56;;;3.99;100.00
83308;BME280;73223;48.584;13.460;2023-11-19T00:59:19;97012.06;;;4.22;100.00
83308;BME280;73223;48.584;13.460;2023-11-19T01:01:45;97016.34;;;4.27;100.00
83308;BME280;73223;48.584;13.460;2023-11-19T01:04:10;97010.38;;;4.19;100.00
83308;BME280;73223;48.584;13.460;2023-11-19T01:06:35;97002.69;;;4.13;100.00
83308;BME280;73223;48.584;13.460;2023-11-19T01:09:00;97007.84;;;4.04;100.00
83308;BME280;73223;48.584;13.460;2023-11-19T01:11:26;96998.53;;;3.75;100.00
83308;BME280;73223;48.584;13.460;2023-11-19T01:13:51;96999.31;;;3.97;100.00
83308;BME280;73223;48.584;13.460;2023-11-19T01:16:17;96993.38;;;3.77;100.00
83308;BME280;73223;48.584;13.460;2023-11-19T01:18:42;96984.88;;;3.46;100.00
83308;BME280;73223;48.584;13.460;2023-11-19T01:21:08;96989.97;;;3.64;100.00
83308;BME280;73223;48.584;13.460;2023-11-19T01:23:34;96994.22;;;3.87;100.00
83308;BME280;73223;48.584;13.460;2023-11-19T01:25:59;96989.09;;;3.85;100.00
83308;BME280;73223;48.584;13.460;2023-11-19T01:28:24;96982.28;;;3.70;100.00
83308;BME280;73223;48.584;13.460;2023-11-19T01:30:53;96985.66;;;3.89;100.00
83308;BME280;73223;48.584;13.460;2023-11-19T01:33:19;96975.41;;;3.81;100.00
83308;BME280;73223;48.584;13.460;2023-11-19T01:35:44;96972.84;;;3.91;100.00
83308;BME280;73223;48.584;13.460;2023-11-19T01:38:09;96977.06;;;4.08;100.00
83308;BME280;73223;48.584;13.460;2023-11-19T01:40:36;96972.81;;;4.03;100.00
83308;BME280;73223;48.584;13.460;2023-11-19T01:43:04;96963.50;;;3.67;100.00
83308;BME280;73223;48.584;13.460;2023-11-19T01:45:30;96964.31;;;3.86;100.00
83308;BME280;73223;48.584;13.460;2023-11-19T01:48:00;96963.44;;;3.79;100.00
83308;BME280;73223;48.584;13.460;2023-11-19T01:50:27;96962.59;;;3.84;100.00
83308;BME280;73223;48.584;13.460;2023-11-19T01:52:54;96960.03;;;3.83;100.00
83308;BME280;73223;48.584;13.460;2023-11-19T01:55:20;96959.22;;;3.67;100.00
83308;BME280;73223;48.584;13.460;2023-11-19T01:57:46;96954.94;;;3.63;100.00
83308;BME280;73223;48.584;13.460;2023-11-19T02:00:13;96951.50;;;3.81;100.00
83308;BME280;73223;48.584;13.460;2023-11-19T02:02:39;96947.13;;;4.12;100.00
83308;BME280;73223;48.584;13.460;2023-11-19T02:05:06;96950.69;;;3.67;100.00
83308;BME280;73223;48.584;13.460;2023-11-19T02:07:32;96948.97;;;3.70;100.00
83308;BME280;73223;48.584;13.460;2023-11-19T02:09:57;96937.00;;;3.75;100.00
83308;BME280;73223;48.584;13.460;2023-11-19T02:12:25;96930.16;;;3.74;100.00
83308;BME280;73223;48.584;13.460;2023-11-19T02:14:53;96923.22;;;3.96;100.00
83308;BME280;73223;48.584;13.460;2023-11-19T02:17:31;96915.59;;;3.90;100.00
83308;BME280;73223;48.584;13.460;2023-11-19T02:19:57;96918.25;;;3.51;100.00
83308;BME280;73223;48.584;13.460;2023-11-19T02:22:23;96917.34;;;3.70;100.00
83308;BME280;73223;48.584;13.460;2023-11-19T02:24:51;96920.78;;;3.61;100.00
83308;BME280;73223;48.584;13.460;2023-11-19T02:30:21;96917.25;;;3.99;100.00
83308;BME280;73223;48.584;13.460;2023-11-19T02:32:50;96913.78;;;4.09;100.00
83308;BME280;73223;48.584;13.460;2023-11-19T02:35:16;96912.00;;;4.22;100.00
83308;BME280;73223;48.584;13.460;2023-11-19T02:37:41;96914.50;;;4.38;100.00
83308;BME280;73223;48.584;13.460;2023-11-19T02:40:07;96912.94;;;4.11;100.00
83308;BME280;73223;48.584;13.460;2023-11-19T02:42:34;96904.34;;;4.14;100.00
83308;BME280;73223;48.584;13.460;2023-11-19T02:45:00;96899.25;;;4.11;100.00
83308;BME280;73223;48.584;13.460;2023-11-19T02:47:26;96885.53;;;4.13;100.00
83308;BME280;73223;48.584;13.460;2023-11-19T02:49:55;96887.31;;;4.02;100.00
83308;BME280;73223;48.584;13.460;2023-11-19T02:52:20;96885.59;;;4.01;100.00
83308;BME280;73223;48.584;13.460;2023-11-19T02:54:46;96879.59;;;4.10;100.00
83308;BME280;73223;48.584;13.460;2023-11-19T02:57:11;96878.66;;;4.25;100.00
83308;BME280;73223;48.584;13.460;2023-11-19T02:59:39;96876.97;;;4.13;100.00
83308;BME280;73223;48.584;13.460;2023-11-19T03:02:06;96870.19;;;4.12;100.00
83308;BME280;73223;48.584;13.460;2023-11-19T03:04:33;96862.44;;;4.18;100.00
83308;BME280;73223;48.584;13.460;2023-11-19T03:06:58;96858.16;;;4.20;100.00
83308;BME280;73223;48.584;13.460;2023-11-19T03:09:24;96854.72;;;4.18;100.00
83308;BME280;73223;48.584;13.460;2023-11-19T03:11:49;96836.66;;;4.36;100.00
83308;BME280;73223;48.584;13.460;2023-11-19T03:14:15;96841.03;;;4.21;100.00
83308;BME280;73223;48.584;13.460;2023-11-19T03:16:40;96834.19;;;4.21;100.00
83308;BME280;73223;48.584;13.460;2023-11-19T03:19:05;96835.97;;;4.11;100.00
83308;BME280;73223;48.584;13.460;2023-11-19T03:21:31;96825.72;;;4.10;100.00
83308;BME280;73223;48.584;13.460;2023-11-19T03:23:57;96819.75;;;4.05;100.00
83308;BME280;73223;48.584;13.460;2023-11-19T03:26:26;96815.41;;;4.19;100.00
83308;BME280;73223;48.584;13.460;2023-11-19T03:28:51;96812.84;;;4.16;100.00
83308;BME280;73223;48.584;13.460;2023-11-19T03:31:17;96801.81;;;4.06;100.00
83308;BME280;73223;48.584;13.460;2023-11-19T03:33:42;96812.84;;;4.19;100.00
83308;BME280;73223;48.584;13.460;2023-11-19T03:36:07;96811.34;;;3.78;100.00
83308;BME280;73223;48.584;13.460;2023-11-19T03:38:34;96810.28;;;4.14;100.00
83308;BME280;73223;48.584;13.460;2023-11-19T03:40:59;96803.44;;;4.15;100.00
83308;BME280;73223;48.584;13.460;2023-11-19T03:43:24;96800.13;;;3.98;100.00
83308;BME280;73223;48.584;13.460;2023-11-19T03:45:50;96795.78;;;4.12;100.00
83308;BME280;73223;48.584;13.460;2023-11-19T03:48:15;96796.81;;;3.83;100.00
83308;BME280;73223;48.584;13.460;2023-11-19T03:50:41;96792.31;;;4.19;100.00
83308;BME280;73223;48.584;13.460;2023-11-19T03:53:06;96794.88;;;4.16;100.00
83308;BME280;73223;48.584;13.460;2023-11-19T03:55:32;96797.44;;;4.16;100.00
83308;BME280;73223;48.584;13.460;2023-11-19T03:57:57;96807.78;;;4.07;100.00
83308;BME280;73223;48.584;13.460;2023-11-19T04:00:23;96802.66;;;4.08;100.00
83308;BME280;73223;48.584;13.460;2023-11-19T04:02:48;96812.91;;;4.11;100.00
83308;BME280;73223;48.584;13.460;2023-11-19T04:05:14;96812.06;;;4.08;100.00
83308;BME280;73223;48.584;13.460;2023-11-19T04:07:39;96821.38;;;4.18;100.00
83308;BME280;73223;48.584;13.460;2023-11-19T04:12:31;96806.06;;;4.10;100.00
83308;BME280;73223;48.584;13.460;2023-11-19T04:14:56;96794.09;;;4.11;100.00
83308;BME280;73223;48.584;13.460;2023-11-19T04:17:22;96791.47;;;4.12;100.00
83308;BME280;73223;48.584;13.460;2023-11-19T04:19:48;96797.44;;;4.16;100.00
83308;BME280;73223;48.584;13.460;2023-11-19T04:22:13;96795.72;;;4.23;100.00
83308;BME280;73223;48.584;13.460;2023-11-19T04:24:38;96798.28;;;4.23;100.00
83308;BME280;73223;48.584;13.460;2023-11-19T04:27:05;96797.41;;;4.24;100.00
83308;BME280;73223;48.584;13.460;2023-11-19T04:29:31;96792.38;;;4.11;100.00
83308;BME280;73223;48.584;13.460;2023-11-19T04:31:57;96797.44;;;4.21;100.00
83308;BME280;73223;48.584;13.460;2023-11-19T04:34:22;96782.03;;;4.21;100.00
83308;BME280;73223;48.584;13.460;2023-11-19T04:36:47;96770.06;;;4.19;100.00
83308;BME280;73223;48.584;13.460;2023-11-19T04:39:12;96766.50;;;4.37;100.00
83308;BME280;73223;48.584;13.460;2023-11-19T04:41:47;96772.59;;;4.26;100.00
83308;BME280;73223;48.584;13.460;2023-11-19T04:44:14;96776.03;;;4.25;100.00
83308;BME280;73223;48.584;13.460;2023-11-19T04:46:40;96764.97;;;4.16;100.00
83308;BME280;73223;48.584;13.460;2023-11-19T04:49:06;96765.75;;;4.26;100.00
83308;BME280;73223;48.584;13.460;2023-11-19T04:51:31;96770.19;;;4.04;100.00
83308;BME280;73223;48.584;13.460;2023-11-19T04:54:02;96761.47;;;4.28;100.00
83308;BME280;73223;48.584;13.460;2023-11-19T04:56:28;96763.13;;;4.34;100.00
83308;BME280;73223;48.584;13.460;2023-11-19T04:58:54;96762.38;;;4.18;100.00
83308;BME280;73223;48.584;13.460;2023-11-19T05:01:19;96762.28;;;4.30;100.00
83308;BME280;73223;48.584;13.460;2023-11-19T05:03:45;96760.03;;;3.88;100.00
83308;BME280;73223;48.584;13.460;2023-11-19T05:06:10;96766.63;;;4.25;100.00
83308;BME280;73223;48.584;13.460;2023-11-19T05:08:36;96765.81;;;4.15;100.00
83308;BME280;73223;48.584;13.460;2023-11-19T05:11:01;96767.03;;;3.57;100.00
83308;BME280;73223;48.584;13.460;2023-11-19T05:13:26;96758.19;;;4.11;100.00
83308;BME280;73223;48.584;13.460;2023-11-19T05:15:52;96766.63;;;4.24;100.00
83308;BME280;73223;48.584;13.460;2023-11-19T05:18:17;96758.19;;;4.11;100.00
83308;BME280;73223;48.584;13.460;2023-11-19T05:20:43;96761.53;;;4.17;100.00
83308;BME280;73223;48.584;13.460;2023-11-19T05:23:08;96766.03;;;3.87;100.00
83308;BME280;73223;48.584;13.460;2023-11-19T05:25:34;96765.91;;;4.02;100.00
83308;BME280;73223;48.584;13.460;2023-11-19T05:27:59;96733.50;;;3.93;100.00
83308;BME280;73223;48.584;13.460;2023-11-19T05:30:24;96772.94;;;3.75;100.00
83308;BME280;73223;48.584;13.460;2023-11-19T05:32:49;96741.88;;;4.15;100.00
83308;BME280;73223;48.584;13.460;2023-11-19T05:35:15;96747.13;;;3.98;100.00
83308;BME280;73223;48.584;13.460;2023-11-19T05:37:40;96740.25;;;4.03;100.00
83308;BME280;73223;48.584;13.460;2023-11-19T05:40:06;96730.75;;;4.19;100.00
83308;BME280;73223;48.584;13.460;2023-11-19T05:42:39;96723.16;;;4.05;100.00
83308;BME280;73223;48.584;13.460;2023-11-19T05:45:04;96721.56;;;3.92;100.00
83308;BME280;73223;48.584;13.460;2023-11-19T05:47:30;96724.88;;;4.03;100.00
83308;BME280;73223;48.584;13.460;2023-11-19T05:49:55;96721.47;;;4.01;100.00
83308;BME280;73223;48.584;13.460;2023-11-19T05:52:20;96723.28;;;3.89;100.00
83308;BME280;73223;48.584;13.460;2023-11-19T05:54:47;96724.16;;;3.84;100.00
83308;BME280;73223;48.584;13.460;2023-11-19T05:57:16;96729.94;;;4.12;100.00
83308;BME280;73223;48.584;13.460;2023-11-19T05:59:45;96729.88;;;4.20;100.00
83308;BME280;73223;48.584;13.460;2023-11-19T06:02:10;96730.69;;;4.25;100.00
83308;BME280;73223;48.584;13.460;2023-11-19T06:04:36;96733.19;;;4.33;100.00
83308;BME280;73223;48.584;13.460;2023-11-19T06:07:01;96741.50;;;4.61;100.00
83308;BME280;73223;48.584;13.460;2023-11-19T06:09:26;96750.06;;;4.60;100.00
83308;BME280;73223;48.584;13.460;2023-11-19T06:11:51;96742.44;;;4.52;100.00
83308;BME280;73223;48.584;13.460;2023-11-19T06:14:18;96715.91;;;4.53;100.00
83308;BME280;73223;48.584;13.460;2023-11-19T06:16:43;96691.41;;;4.20;100.00
83308;BME280;73223;48.584;13.460;2023-11-19T06:19:09;96696.78;;;3.90;100.00
83308;BME280;73223;48.584;13.460;2023-11-19T06:21:36;96699.25;;;4.00;100.00
83308;BME280;73223;48.584;13.460;2023-11-19T06:24:02;96700.00;;;4.13;100.00
83308;BME280;73223;48.584;13.460;2023-11-19T06:26:27;96696.47;;;4.28;100.00
83308;BME280;73223;48.584;13.460;2023-11-19T06:28:52;96689.88;;;3.98;100.00
83308;BME280;73223;48.584;13.460;2023-11-19T06:31:18;96709.22;;;4.34;100.00
83308;BME280;73223;48.584;13.460;2023-11-19T06:33:43;96723.28;;;4.86;100.00
83308;BME280;73223;48.584;13.460;2023-11-19T06:36:08;96731.41;;;6.46;100.00
83308;BME280;73223;48.584;13.460;2023-11-19T06:38:34;96736.59;;;7.39;100.00
83308;BME280;73223;48.584;13.460;2023-11-19T06:41:00;96727.44;;;6.79;100.00
83308;BME280;73223;48.584;13.460;2023-11-19T06:43:25;96731.00;;;6.18;100.00
83308;BME280;73223;48.584;13.460;2023-11-19T06:45:50;96739.41;;;5.70;100.00
83308;BME280;73223;48.584;13.460;2023-11-19T06:48:16;96740.72;;;5.35;100.00
83308;BME280;73223;48.584;13.460;2023-11-19T06:50:41;96748.34;;;5.40;100.00
83308;BME280;73223;48.584;13.460;2023-11-19T06:53:06;96745.72;;;5.46;100.00
83308;BME280;73223;48.584;13.460;2023-11-19T06:55:35;96736.50;;;5.28;100.00
83308;BME280;73223;48.584;13.460;2023-11-19T06:58:00;96733.69;;;5.48;100.00
83308;BME280;73223;48.584;13.460;2023-11-19T07:00:27;96727.31;;;5.07;100.00
83308;BME280;73223;48.584;13.460;2023-11-19T07:02:53;96730.91;;;4.94;100.00
83308;BME280;73223;48.584;13.460;2023-11-19T07:05:18;96735.06;;;5.04;100.00
83308;BME280;73223;48.584;13.460;2023-11-19T07:07:44;96733.34;;;5.03;100.00
83308;BME280;73223;48.584;13.460;2023-11-19T07:10:11;96747.81;;;5.15;100.00
83308;BME280;73223;48.584;13.460;2023-11-19T07:12:36;96761.66;;;5.00;100.00
83308;BME280;73223;48.584;13.460;2023-11-19T07:15:02;96748.22;;;4.74;100.00
83308;BME280;73223;48.584;13.460;2023-11-19T07:17:30;96757.44;;;4.95;100.00
83308;BME280;73223;48.584;13.460;2023-11-19T07:19:55;96762.63;;;4.88;100.00
83308;BME280;73223;48.584;13.460;2023-11-19T07:22:25;96772.03;;;4.88;100.00
83308;BME280;73223;48.584;13.460;2023-11-19T07:24:50;96766.88;;;4.91;100.00
83308;BME280;73223;48.584;13.460;2023-11-19T07:27:16;96756.59;;;4.93;100.00
83308;BME280;73223;48.584;13.460;2023-11-19T07:29:43;96758.13;;;5.10;100.00
83308;BME280;73223;48.584;13.460;2023-11-19T07:32:09;96750.41;;;5.10;100.00
83308;BME280;73223;48.584;13.460;2023-11-19T07:34:34;96753.97;;;4.99;100.00
83308;BME280;73223;48.584;13.460;2023-11-19T07:36:59;96755.72;;;4.95;100.00
83308;BME280;73223;48.584;13.460;2023-11-19T07:39:27;96758.28;;;4.95;100.00
83308;BME280;73223;48.584;13.460;2023-11-19T07:41:52;96757.34;;;5.02;100.00
83308;BME280;73223;48.584;13.460;2023-11-19T07:44:18;96760.84;;;4.98;100.00
83308;BME280;73223;48.584;13.460;2023-11-19T07:46:43;96776.78;;;5.97;100.00
83308;BME280;73223;48.584;13.460;2023-11-19T07:49:10;96773.94;;;6.70;100.00
83308;BME280;73223;48.584;13.460;2023-11-19T07:51:35;96761.38;;;7.00;100.00
83308;BME280;73223;48.584;13.460;2023-11-19T07:54:01;96765.78;;;7.39;100.00
83308;BME280;73223;48.584;13.460;2023-11-19T07:56:26;96758.69;;;7.52;100.00
83308;BME280;73223;48.584;13.460;2023-11-19T07:58:52;96763.09;;;6.51;100.00
83308;BME280;73223;48.584;13.460;2023-11-19T08:01:17;96759.53;;;6.05;100.00
83308;BME280;73223;48.584;13.460;2023-11-19T08:03:43;96764.03;;;5.90;100.00
83308;BME280;73223;48.584;13.460;2023-11-19T08:06:08;96759.78;;;5.83;100.00
83308;BME280;73223;48.584;13.460;2023-11-19T08:08:34;96757.22;;;5.85;100.00
83308;BME280;73223;48.584;13.460;2023-11-19T08:11:00;96750.44;;;5.76;100.00
83308;BME280;73223;48.584;13.460;2023-11-19T08:13:26;96751.78;;;5.39;100.00
83308;BME280;73223;48.584;13.460;2023-11-19T08:15:51;96745.78;;;5.38;100.00
83308;BME280;73223;48.584;13.460;2023-11-19T08:18:17;96737.84;;;5.58;100.00
83308;BME280;73223;48.584;13.460;2023-11-19T08:20:43;96741.28;;;5.55;100.00
83308;BME280;73223;48.584;13.460;2023-11-19T08:23:09;96745.78;;;5.38;100.00
83308;BME280;73223;48.584;13.460;2023-11-19T08:25:35;96741.78;;;5.19;100.00
83308;BME280;73223;48.584;13.460;2023-11-19T08:28:00;96749.56;;;5.11;100.00
83308;BME280;73223;48.584;13.460;2023-11-19T08:30:26;96743.09;;;4.75;100.00
83308;BME280;73223;48.584;13.460;2023-11-19T08:32:52;96725.22;;;4.65;100.00
83308;BME280;73223;48.584;13.460;2023-11-19T08:35:17;96725.81;;;4.88;100.00
83308;BME280;73223;48.584;13.460;2023-11-19T08:37:42;96720.47;;;5.09;100.00
83308;BME280;73223;48.584;13.460;2023-11-19T08:40:08;96717.84;;;5.12;100.00
83308;BME280;73223;48.584;13.460;2023-11-19T08:42:34;96713.38;;;5.28;100.00
83308;BME280;73223;48.584;13.460;2023-11-19T08:45:00;96712.78;;;5.06;100.00
83308;BME280;73223;48.584;13.460;2023-11-19T08:47:25;96708.38;;;5.17;100.00
83308;BME280;73223;48.584;13.460;2023-11-19T08:49:51;96714.19;;;5.32;100.00
83308;BME280;73223;48.584;13.460;2023-11-19T08:52:17;96715.31;;;5.09;100.00
83308;BME280;73223;48.584;13.460;2023-11-19T08:54:43;96713.44;;;5.23;100.00
83308;BME280;73223;48.584;13.460;2023-11-19T08:57:08;96710.84;;;5.25;100.00
83308;BME280;73223;48.584;13.460;2023-11-19T08:59:34;96705.88;;;5.13;100.00
83308;BME280;73223;48.584;13.460;2023-11-19T09:01:59;96704.13;;;5.15;100.00
83308;BME280;73223;48.584;13.460;2023-11-19T09:04:24;96706.72;;;5.13;100.00
83308;BME280;73223;48.584;13.460;2023-11-19T09:06:50;96708.47;;;5.08;100.00
83308;BME280;73223;48.584;13.460;2023-11-19T09:09:16;96705.09;;;5.03;100.00
83308;BME280;73223;48.584;13.460;2023-11-19T09:11:41;96706.59;;;5.22;100.00
83308;BME280;73223;48.584;13.460;2023-11-19T09:14:07;96716.88;;;5.22;100.00
83308;BME280;73223;48.584;13.460;2023-11-19T09:16:32;96704.22;;;5.06;100.00
83308;BME280;73223;48.584;13.460;2023-11-19T09:18:58;96707.47;;;5.20;100.00
83308;BME280;73223;48.584;13.460;2023-11-19T09:21:25;96718.53;;;5.27;100.00
83308;BME280;73223;48.584;13.460;2023-11-19T09:23:50;96709.09;;;5.29;100.00
83308;BME280;73223;48.584;13.460;2023-11-19T09:26:15;96711.69;;;5.26;100.00
83308;BME280;73223;48.584;13.460;2023-11-19T09:32:02;96704.00;;;5.24;100.00
83308;BME280;73223;48.584;13.460;2023-11-19T09:34:28;96704.09;;;5.19;100.00
83308;BME280;73223;48.584;13.460;2023-11-19T09:36:53;96709.00;;;5.36;100.00
83308;BME280;73223;48.584;13.460;2023-11-19T09:39:18;96694.78;;;5.09;100.00
83308;BME280;73223;48.584;13.460;2023-11-19T09:41:45;96704.78;;;5.31;100.00
83308;BME280;73223;48.584;13.460;2023-11-19T09:44:11;96700.38;;;5.40;100.00
83308;BME280;73223;48.584;13.460;2023-11-19T09:46:38;96706.72;;;5.12;100.00
83308;BME280;73223;48.584;13.460;2023-11-19T09:49:04;96696.31;;;5.22;100.00
83308;BME280;73223;48.584;13.460;2023-11-19T09:51:32;96692.34;;;5.63;100.00
83308;BME280;73223;48.584;13.460;2023-11-19T09:53:57;96682.81;;;5.71;100.00
83308;BME280;73223;48.584;13.460;2023-11-19T09:56:23;96696.59;;;5.66;100.00
83308;BME280;73223;48.584;13.460;2023-11-19T09:58:48;96684.72;;;5.57;100.00
83308;BME280;73223;48.584;13.460;2023-11-19T10:01:14;96688.91;;;5.64;100.00
83308;BME280;73223;48.584;13.460;2023-11-19T10:03:40;96692.25;;;5.72;100.00
83308;BME280;73223;48.584;13.460;2023-11-19T10:06:07;96691.25;;;5.79;100.00
83308;BME280;73223;48.584;13.460;2023-11-19T10:08:33;96671.47;;;5.84;100.00
83308;BME280;73223;48.584;13.460;2023-11-19T10:10:58;96674.81;;;5.92;100.00
83308;BME280;73223;48.584;13.460;2023-11-19T10:13:30;96687.53;;;6.02;100.00
83308;BME280;73223;48.584;13.460;2023-11-19T10:15:56;96685.75;;;6.07;100.00
83308;BME280;73223;48.584;13.460;2023-11-19T10:18:26;96673.56;;;6.16;100.00
83308;BME280;73223;48.584;13.460;2023-11-19T10:20:51;96681.28;;;6.18;100.00
83308;BME280;73223;48.584;13.460;2023-11-19T10:26:40;96683.28;;;5.99;100.00
83308;BME280;73223;48.584;13.460;2023-11-19T10:29:05;96670.09;;;6.19;100.00
83308;BME280;73223;48.584;13.460;2023-11-19T10:31:30;96673.88;;;5.97;100.00
83308;BME280;73223;48.584;13.460;2023-11-19T10:33:56;96676.78;;;6.29;100.00
83308;BME280;73223;48.584;13.460;2023-11-19T10:36:21;96663.09;;;6.27;100.00
83308;BME280;73223;48.584;13.460;2023-11-19T10:38:56;96663.94;;;6.27;100.00
83308;BME280;73223;48.584;13.460;2023-11-19T10:41:31;96657.75;;;6.39;100.00
83308;BME280;73223;48.584;13.460;2023-11-19T10:43:57;96658.97;;;6.17;100.00
83308;BME280;73223;48.584;13.460;2023-11-19T10:46:22;96655.44;;;6.24;100.00
83308;BME280;73223;48.584;13.460;2023-11-19T10:48:49;96643.41;;;6.26;100.00
83308;BME280;73223;48.584;13.460;2023-11-19T10:51:19;96648.59;;;6.23;100.00
83308;BME280;73223;48.584;13.460;2023-11-19T10:53:49;96651.34;;;6.12;100.00
83308;BME280;73223;48.584;13.460;2023-11-19T10:56:15;96639.72;;;5.88;100.00
83308;BME280;73223;48.584;13.460;2023-11-19T10:58:44;96639.22;;;6.19;100.00
83308;BME280;73223;48.584;13.460;2023-11-19T11:01:26;96628.72;;;6.30;100.00
83308;BME280;73223;48.584;13.460;2023-11-19T11:03:53;96648.72;;;6.14;100.00
83308;BME280;73223;48.584;13.460;2023-11-19T11:06:21;96633.03;;;6.29;100.00
83308;BME280;73223;48.584;13.460;2023-11-19T11:08:47;96644.16;;;6.31;100.00
83308;BME280;73223;48.584;13.460;2023-11-19T11:11:15;96645.88;;;6.31;100.00
83308;BME280;73223;48.584;13.460;2023-11-19T11:13:47;96635.84;;;6.15;100.00
83308;BME280;73223;48.584;13.460;2023-11-19T11:16:14;96640.69;;;6.32;100.00
83308;BME280;73223;48.584;13.460;2023-11-19T11:18:40;96642.44;;;6.32;100.00
83308;BME280;73223;48.584;13.460;2023-11-19T11:21:09;96641.94;;;6.59;100.00
83308;BME280;73223;48.584;13.460;2023-11-19T11:29:37;96643.19;;;6.38;100.00
83308;BME280;73223;48.584;13.460;2023-11-19T11:32:37;96634.41;;;5.99;100.00
83308;BME280;73223;48.584;13.460;2023-11-19T11:38:10;96615.72;;;7.25;100.00
83308;BME280;73223;48.584;13.460;2023-11-19T11:40:35;96626.13;;;6.79;100.00
83308;BME280;73223;48.584;13.460;2023-11-19T11:43:02;96627.16;;;6.69;100.00
83308;BME280;73223;48.584;13.460;2023-11-19T11:45:39;96617.16;;;6.53;100.00
83308;BME280;73223;48.584;13.460;2023-11-19T11:48:12;96609.59;;;6.89;100.00
83308;BME280;73223;48.584;13.460;2023-11-19T11:50:56;96609.94;;;6.72;100.00
83308;BME280;73223;48.584;13.460;2023-11-19T11:53:23;96623.91;;;7.02;100.00
83308;BME280;73223;48.584;13.460;2023-11-19T11:58:21;96601.34;;;7.15;100.00
83308;BME280;73223;48.584;13.460;2023-11-19T12:00:47;96601.34;;;6.72;100.00
83308;BME280;73223;48.584;13.460;2023-11-19T12:03:14;96618.06;;;6.49;100.00
83308;BME280;73223;48.584;13.460;2023-11-19T12:05:44;96606.09;;;6.47;100.00
83308;BME280;73223;48.584;13.460;2023-11-19T12:08:11;96601.03;;;5.95;100.00
83308;BME280;73223;48.584;13.460;2023-11-19T12:10:53;96607.78;;;6.49;100.00
83308;BME280;73223;48.584;13.460;2023-11-19T12:13:20;96603.56;;;6.45;100.00
83308;BME280;73223;48.584;13.460;2023-11-19T12:18:23;96608.81;;;6.41;100.00
83308;BME280;73223;48.584;13.460;2023-11-19T12:20:49;96585.13;;;6.22;100.00
83308;BME280;73223;48.584;13.460;2023-11-19T12:23:14;96602.16;;;6.27;100.00
83308;BME280;73223;48.584;13.460;2023-11-19T12:25:40;96598.31;;;6.51;100.00
83308;BME280;73223;48.584;13.460;2023-11-19T12:28:05;96589.56;;;6.60;100.00
83308;BME280;73223;48.584;13.460;2023-11-19T12:30:31;96583.25;;;6.75;100.00
83308;BME280;73223;48.584;13.460;2023-11-19T12:33:14;96584.06;;;6.78;100.00
83308;BME280;73223;48.584;13.460;2023-11-19T12:35:44;96584.13;;;6.74;100.00
83308;BME280;73223;48.584;13.460;2023-11-19T12:38:24;96582.09;;;6.89;100.00
83308;BME280;73223;48.584;13.460;2023-11-19T12:41:03;96582.00;;;6.94;100.00
83308;BME280;73223;48.584;13.460;2023-11-19T12:43:29;96586.28;;;6.52;100.00
83308;BME280;73223;48.584;13.460;2023-11-19T12:45:54;96597.38;;;6.55;100.00
83308;BME280;73223;48.584;13.460;2023-11-19T12:48:20;96614.16;;;6.28;100.00
83308;BME280;73223;48.584;13.460;2023-11-19T12:50:52;96610.53;;;6.40;100.00
83308;BME280;73223;48.584;13.460;2023-11-19T12:53:24;96602.22;;;6.71;100.00
83308;BME280;73223;48.584;13.460;2023-11-19T12:55:50;96589.38;;;7.11;100.00
83308;BME280;73223;48.584;13.460;2023-11-19T12:58:33;96575.63;;;8.54;100.00
83308;BME280;73223;48.584;13.460;2023-11-19T13:01:06;96565.94;;;8.91;100.00
83308;BME280;73223;48.584;13.460;2023-11-19T13:03:33;96569.44;;;9.18;100.00
83308;BME280;73223;48.584;13.460;2023-11-19T13:06:05;96561.66;;;9.20;100.00
83308;BME280;73223;48.584;13.460;2023-11-19T13:08:49;96558.84;;;8.98;100.00
83308;BME280;73223;48.584;13.460;2023-11-19T13:11:30;96547.66;;;8.37;100.00
83308;BME280;73223;48.584;13.460;2023-11-19T13:14:03;96562.50;;;8.27;100.00